createdAt,value
2023-04-28T00:00:13.778Z,0.90
2023-04-28T00:02:40.452Z,0.90
2023-04-28T00:05:07.517Z,0.70
2023-04-28T00:07:34.207Z,1.00
2023-04-28T00:10:00.834Z,0.90
2023-04-28T00:12:27.331Z,0.90
2023-04-28T00:14:53.868Z,0.70
2023-04-28T00:17:20.472Z,1.10
2023-04-28T00:19:46.965Z,0.90
2023-04-28T00:22:13.554Z,1.30
2023-04-28T00:24:42.013Z,0.90
2023-04-28T00:27:08.673Z,0.90
2023-04-28T00:29:35.200Z,0.70
2023-04-28T00:32:01.702Z,0.90
2023-04-28T00:34:30.043Z,1.20
2023-04-28T00:36:57.627Z,1.00
2023-04-28T00:39:25.729Z,1.10
2023-04-28T00:41:52.407Z,0.90
2023-04-28T00:44:18.919Z,1.20
2023-04-28T00:46:46.097Z,1.00
2023-04-28T00:49:12.676Z,1.30
2023-04-28T00:51:39.204Z,1.10
2023-04-28T00:54:06.426Z,0.80
2023-04-28T00:56:34.275Z,0.90
2023-04-28T00:59:00.955Z,1.00
2023-04-28T01:01:27.718Z,1.10
2023-04-28T01:03:54.478Z,0.70
2023-04-28T01:06:21.158Z,0.80
2023-04-28T01:08:51.152Z,1.00
2023-04-28T01:11:17.927Z,1.40
2023-04-28T01:13:44.530Z,1.00
2023-04-28T01:16:11.820Z,0.80
2023-04-28T01:18:42.841Z,1.00
2023-04-28T01:21:09.364Z,1.10
2023-04-28T01:23:36.059Z,0.70
2023-04-28T01:26:03.253Z,0.90
2023-04-28T01:28:29.844Z,0.80
2023-04-28T01:30:56.688Z,0.90
2023-04-28T01:33:23.310Z,0.70
2023-04-28T01:35:49.753Z,0.80
2023-04-28T01:38:16.291Z,1.00
2023-04-28T01:40:42.932Z,0.70
2023-04-28T01:43:09.360Z,1.00
2023-04-28T01:45:35.856Z,1.00
2023-04-28T01:48:02.409Z,0.90
2023-04-28T01:50:29.018Z,0.80
2023-04-28T01:52:55.621Z,1.00
2023-04-28T01:55:22.114Z,0.70
2023-04-28T01:57:49.193Z,1.00
2023-04-28T02:00:16.052Z,1.40
2023-04-28T02:02:42.792Z,0.70
2023-04-28T02:05:09.439Z,0.80
2023-04-28T02:07:36.379Z,0.60
2023-04-28T02:10:03.007Z,1.00
2023-04-28T02:12:29.535Z,0.80
2023-04-28T02:14:56.024Z,0.60
2023-04-28T02:17:22.652Z,0.50
2023-04-28T02:19:54.728Z,1.10
2023-04-28T02:22:21.313Z,0.80
2023-04-28T02:24:47.836Z,0.70
2023-04-28T02:27:14.735Z,1.10
2023-04-28T02:29:42.258Z,0.90
2023-04-28T02:32:08.909Z,0.60
2023-04-28T02:34:35.451Z,1.10
2023-04-28T02:37:02.281Z,1.00
2023-04-28T02:39:30.210Z,1.10
2023-04-28T02:41:56.782Z,1.20
2023-04-28T02:44:23.785Z,0.80
2023-04-28T02:46:50.696Z,0.60
2023-04-28T02:49:17.216Z,1.00
2023-04-28T02:51:43.665Z,1.00
2023-04-28T02:54:10.149Z,0.70
2023-04-28T02:56:37.318Z,0.70
2023-04-28T02:59:04.023Z,1.20
2023-04-28T03:01:30.567Z,0.60
2023-04-28T03:03:57.238Z,0.60
2023-04-28T03:06:23.897Z,0.80
2023-04-28T03:08:50.337Z,0.70
2023-04-28T03:11:16.852Z,0.70
2023-04-28T03:13:43.339Z,0.60
2023-04-28T03:16:09.888Z,0.70
2023-04-28T03:18:36.438Z,0.70
2023-04-28T03:21:02.916Z,0.90
2023-04-28T03:23:29.410Z,0.60
2023-04-28T03:25:55.840Z,0.50
2023-04-28T03:28:22.395Z,0.90
2023-04-28T03:30:48.930Z,0.90
2023-04-28T03:33:15.446Z,0.70
2023-04-28T03:35:41.928Z,0.60
2023-04-28T03:38:08.456Z,0.90
2023-04-28T03:40:35.138Z,0.70
2023-04-28T03:43:03.965Z,1.10
2023-04-28T03:45:31.566Z,1.20
2023-04-28T03:47:58.214Z,0.80
2023-04-28T03:50:26.533Z,1.10
2023-04-28T03:52:53.369Z,1.00
2023-04-28T03:55:19.887Z,0.80
2023-04-28T03:57:46.446Z,1.00
2023-04-28T04:00:14.573Z,0.70
2023-04-28T04:02:41.194Z,0.90
2023-04-28T04:05:08.236Z,0.60
2023-04-28T04:07:34.970Z,0.90
2023-04-28T04:10:03.853Z,0.70
2023-04-28T04:12:31.233Z,0.70
2023-04-28T04:14:57.740Z,0.80
2023-04-28T04:17:24.378Z,0.70
2023-04-28T04:19:51.096Z,1.00
2023-04-28T04:22:17.558Z,0.60
2023-04-28T04:24:44.052Z,1.00
2023-04-28T04:27:11.166Z,0.50
2023-04-28T04:29:37.643Z,1.00
2023-04-28T04:32:04.330Z,0.70
2023-04-28T04:34:30.821Z,0.70
2023-04-28T04:36:57.266Z,0.60
2023-04-28T04:39:23.797Z,1.00
2023-04-28T04:41:50.304Z,0.90
2023-04-28T04:44:17.012Z,0.90
2023-04-28T04:46:43.778Z,0.80
2023-04-28T04:49:10.276Z,0.60
2023-04-28T04:51:36.823Z,0.90
2023-04-28T04:54:03.445Z,0.80
2023-04-28T04:56:30.092Z,0.80
2023-04-28T04:58:57.568Z,0.60
2023-04-28T05:01:24.135Z,0.70
2023-04-28T05:03:50.853Z,0.70
2023-04-28T05:06:17.506Z,0.90
2023-04-28T05:08:43.981Z,0.80
2023-04-28T05:11:10.604Z,0.80
2023-04-28T05:13:37.093Z,0.70
2023-04-28T05:16:03.772Z,0.80
2023-04-28T05:18:30.415Z,0.80
2023-04-28T05:20:56.986Z,0.60
2023-04-28T05:23:23.624Z,0.50
2023-04-28T05:25:50.220Z,0.80
2023-04-28T05:28:16.743Z,1.10
2023-04-28T05:30:45.021Z,0.70
2023-04-28T05:33:11.629Z,0.50
2023-04-28T05:35:38.274Z,0.70
2023-04-28T05:38:04.889Z,0.70
2023-04-28T05:40:31.327Z,0.50
2023-04-28T05:42:57.761Z,0.40
2023-04-28T05:45:24.266Z,0.80
2023-04-28T05:47:50.896Z,0.70
2023-04-28T05:50:17.502Z,0.70
2023-04-28T05:52:43.986Z,0.70
2023-04-28T05:55:10.842Z,1.40
2023-04-28T05:57:49.215Z,0.60
2023-04-28T06:00:18.962Z,0.40
2023-04-28T06:02:45.796Z,0.70
2023-04-28T06:05:12.703Z,0.50
2023-04-28T06:07:39.474Z,1.10
2023-04-28T06:10:06.637Z,1.10
2023-04-28T06:12:33.164Z,0.90
2023-04-28T06:14:59.610Z,0.60
2023-04-28T06:17:26.327Z,0.80
2023-04-28T06:19:54.623Z,0.70
2023-04-28T06:22:21.156Z,0.50
2023-04-28T06:24:47.937Z,1.00
2023-04-28T06:27:14.575Z,1.00
2023-04-28T06:29:41.047Z,0.70
2023-04-28T06:32:07.657Z,0.80
2023-04-28T06:34:35.141Z,0.60
2023-04-28T06:37:01.785Z,0.70
2023-04-28T06:39:28.374Z,1.10
2023-04-28T06:41:55.023Z,0.70
2023-04-28T06:44:21.585Z,0.60
2023-04-28T06:46:48.226Z,0.50
2023-04-28T06:49:14.920Z,0.50
2023-04-28T06:51:41.514Z,0.80
2023-04-28T06:54:07.992Z,0.70
2023-04-28T06:56:36.116Z,0.30
2023-04-28T06:59:03.388Z,0.60
2023-04-28T07:01:30.000Z,0.40
2023-04-28T07:03:56.951Z,0.70
2023-04-28T07:06:23.970Z,0.30
2023-04-28T07:08:50.773Z,0.60
2023-04-28T07:11:17.369Z,0.90
2023-04-28T07:13:43.960Z,0.40
2023-04-28T07:16:11.201Z,0.50
2023-04-28T07:18:37.814Z,0.50
2023-04-28T07:21:05.624Z,1.20
2023-04-28T07:23:32.780Z,0.60
2023-04-28T07:25:59.389Z,0.90
2023-04-28T07:28:26.469Z,0.70
2023-04-28T07:30:52.993Z,0.70
2023-04-28T07:33:19.585Z,0.40
2023-04-28T07:35:46.147Z,0.80
2023-04-28T07:38:12.653Z,0.90
2023-04-28T07:40:39.222Z,1.10
2023-04-28T07:43:05.780Z,0.70
2023-04-28T07:45:32.515Z,0.60
2023-04-28T07:47:59.110Z,0.70
2023-04-28T07:50:25.678Z,0.60
2023-04-28T07:52:52.190Z,1.00
2023-04-28T07:55:18.693Z,0.80
2023-04-28T07:57:45.269Z,1.00
2023-04-28T08:00:12.327Z,0.80
2023-04-28T08:02:39.048Z,0.60
2023-04-28T08:05:07.922Z,0.90
2023-04-28T08:07:35.147Z,0.80
2023-04-28T08:10:01.759Z,0.80
2023-04-28T08:12:28.340Z,0.80
2023-04-28T08:14:55.283Z,1.00
2023-04-28T08:17:21.926Z,1.00
2023-04-28T08:19:48.866Z,1.10
2023-04-28T08:22:15.994Z,1.00
2023-04-28T08:24:42.562Z,1.20
2023-04-28T08:27:09.202Z,0.90
2023-04-28T08:29:35.726Z,1.00
2023-04-28T08:32:02.301Z,1.10
2023-04-28T08:34:31.817Z,1.00
2023-04-28T08:36:58.609Z,0.80
2023-04-28T08:39:26.750Z,1.00
2023-04-28T08:41:53.721Z,1.00
2023-04-28T08:44:20.407Z,0.60
2023-04-28T08:46:50.032Z,0.60
2023-04-28T08:49:25.011Z,0.70
2023-04-28T08:52:00.058Z,0.70
2023-04-28T08:54:31.915Z,0.80
2023-04-28T08:56:59.006Z,1.10
2023-04-28T08:59:26.257Z,0.70
2023-04-28T09:01:52.864Z,0.50
2023-04-28T09:04:21.255Z,0.80
2023-04-28T09:06:48.662Z,0.50
2023-04-28T09:09:36.242Z,1.20
2023-04-28T09:12:05.168Z,0.70
2023-04-28T09:14:33.893Z,0.60
2023-04-28T09:17:01.461Z,0.50
2023-04-28T09:19:38.490Z,1.30
2023-04-28T09:22:21.805Z,0.90
2023-04-28T09:24:53.542Z,0.60
2023-04-28T09:27:27.161Z,0.50
2023-04-28T09:29:54.603Z,0.50
2023-04-28T09:32:22.819Z,0.80
2023-04-28T09:34:52.517Z,0.50
2023-04-28T09:37:31.059Z,0.30
2023-04-28T09:40:04.245Z,0.30
2023-04-28T09:42:37.486Z,0.50
2023-04-28T09:45:14.773Z,0.70
2023-04-28T09:47:43.712Z,0.50
2023-04-28T09:50:14.702Z,0.40
2023-04-28T09:52:44.313Z,0.70
2023-04-28T09:55:12.327Z,0.50
2023-04-28T09:57:39.819Z,0.50
2023-04-28T10:00:09.444Z,0.40
2023-04-28T10:05:09.887Z,0.60
2023-04-28T10:07:37.568Z,0.60
2023-04-28T10:10:07.016Z,0.60
2023-04-28T10:12:34.158Z,0.30
2023-04-28T10:15:00.984Z,0.60
2023-04-28T10:17:29.705Z,0.50
2023-04-28T10:19:57.249Z,0.40
2023-04-28T10:23:17.489Z,0.40
2023-04-28T10:25:48.422Z,0.60
2023-04-28T10:28:16.098Z,0.40
2023-04-28T10:30:42.614Z,0.50
2023-04-28T10:33:12.173Z,0.70
2023-04-28T10:35:43.130Z,0.60
2023-04-28T10:40:40.196Z,0.40
2023-04-28T10:43:09.390Z,0.60
2023-04-28T10:45:56.852Z,0.30
2023-04-28T10:48:46.586Z,0.50
2023-04-28T10:51:22.800Z,0.70
2023-04-28T10:53:50.463Z,0.60
2023-04-28T10:56:21.670Z,0.30
2023-04-28T10:58:51.124Z,0.60
2023-04-28T11:01:20.691Z,0.30
2023-04-28T11:03:51.805Z,0.30
2023-04-28T11:06:23.863Z,0.20
2023-04-28T11:08:50.383Z,0.20
2023-04-28T11:11:22.026Z,0.20
2023-04-28T11:13:49.169Z,0.30
2023-04-28T11:16:21.132Z,0.10
2023-04-28T11:18:57.105Z,0.20
2023-04-28T11:21:25.903Z,0.20
2023-04-28T11:23:52.536Z,0.40
2023-04-28T11:26:20.160Z,0.40
2023-04-28T11:28:48.773Z,0.20
2023-04-28T11:31:20.781Z,1.00
2023-04-28T11:33:51.457Z,0.10
2023-04-28T11:36:24.200Z,0.30
2023-04-28T11:38:51.123Z,0.30
2023-04-28T11:41:17.792Z,0.30
2023-04-28T11:43:47.388Z,0.20
2023-04-28T11:46:23.314Z,0.10
2023-04-28T11:49:01.418Z,0.20
2023-04-28T11:51:36.735Z,0.10
2023-04-28T11:54:04.359Z,0.20
2023-04-28T11:56:32.126Z,0.10
2023-04-28T11:59:08.151Z,0.10
2023-04-28T12:01:56.123Z,0.10
2023-04-28T12:04:38.072Z,0.70
2023-04-28T12:07:07.847Z,0.30
2023-04-28T12:09:35.585Z,0.40
2023-04-28T12:12:07.235Z,0.10
2023-04-28T12:14:57.736Z,0.50
2023-04-28T12:17:35.420Z,0.10
2023-04-28T12:20:04.582Z,0.40
2023-04-28T12:22:31.431Z,0.10
2023-04-28T12:25:12.635Z,0.30
2023-04-28T12:27:40.708Z,0.40
2023-04-28T12:30:20.782Z,0.40
2023-04-28T12:32:48.235Z,0.30
2023-04-28T12:35:16.184Z,0.40
2023-04-28T12:37:43.473Z,0.10
2023-04-28T12:40:10.752Z,0.20
2023-04-28T12:42:37.489Z,0.40
2023-04-28T12:45:04.299Z,0.20
2023-04-28T12:47:31.589Z,0.30
2023-04-28T12:49:58.147Z,0.10
2023-04-28T12:52:24.860Z,0.50
2023-04-28T12:54:51.440Z,0.10
2023-04-28T12:57:19.706Z,0.20
2023-04-28T12:59:49.203Z,0.30
2023-04-28T13:02:15.918Z,0.10
2023-04-28T13:04:46.327Z,0.60
2023-04-28T13:07:14.066Z,0.30
2023-04-28T13:09:42.908Z,0.20
2023-04-28T13:12:11.668Z,0.10
2023-04-28T13:14:38.160Z,0.20
2023-04-28T13:17:04.988Z,0.10
2023-04-28T13:19:33.867Z,0.30
2023-04-28T13:22:00.632Z,0.30
2023-04-28T13:24:27.086Z,0.40
2023-04-28T13:26:53.657Z,0.60
2023-04-28T13:29:20.583Z,0.20
2023-04-28T13:31:47.151Z,0.30
2023-04-28T13:34:17.552Z,0.20
2023-04-28T13:36:44.758Z,0.10
2023-04-28T13:39:11.842Z,0.30
2023-04-28T13:41:38.367Z,0.80
2023-04-28T13:44:04.887Z,0.40
2023-04-28T13:46:31.514Z,0.10
2023-04-28T13:48:58.633Z,0.10
2023-04-28T13:51:25.127Z,0.20
2023-04-28T13:53:51.614Z,0.40
2023-04-28T13:56:18.211Z,0.10
2023-04-28T13:58:44.782Z,0.30
2023-04-28T14:01:11.332Z,0.20
2023-04-28T14:03:37.982Z,0.10
2023-04-28T14:06:04.760Z,0.10
2023-04-28T14:08:31.345Z,0.20
2023-04-28T14:10:57.856Z,0.20
2023-04-28T14:13:27.138Z,0.40
2023-04-28T14:15:59.054Z,0.10
2023-04-28T14:18:27.045Z,0.20
2023-04-28T14:20:54.573Z,0.30
2023-04-28T14:23:24.684Z,0.10
2023-04-28T14:25:56.028Z,0.10
2023-04-28T14:28:22.977Z,0.20
2023-04-28T14:30:50.136Z,0.50
2023-04-28T14:33:16.630Z,0.20
2023-04-28T14:35:43.192Z,0.30
2023-04-28T14:38:09.796Z,0.30
2023-04-28T14:40:36.236Z,0.20
2023-04-28T14:43:02.718Z,0.30
2023-04-28T14:45:29.225Z,0.20
2023-04-28T14:47:56.030Z,0.80
2023-04-28T14:50:22.730Z,0.10
2023-04-28T14:52:49.657Z,0.10
2023-04-28T14:55:16.249Z,0.60
2023-04-28T14:57:42.769Z,0.30
2023-04-28T15:00:09.819Z,0.20
2023-04-28T15:02:36.785Z,0.20
2023-04-28T15:05:03.644Z,0.10
2023-04-28T15:07:31.740Z,0.30
2023-04-28T15:09:59.782Z,0.20
2023-04-28T15:12:26.842Z,0.40
2023-04-28T15:14:54.030Z,0.30
2023-04-28T15:17:21.418Z,0.10
2023-04-28T15:19:48.042Z,0.20
2023-04-28T15:22:14.600Z,0.30
2023-04-28T15:24:41.315Z,0.60
2023-04-28T15:27:07.946Z,0.40
2023-04-28T15:29:34.437Z,0.20
2023-04-28T15:32:00.998Z,0.30
2023-04-28T15:34:27.458Z,0.10
2023-04-28T15:36:53.889Z,0.20
2023-04-28T15:39:20.621Z,0.20
2023-04-28T15:41:47.784Z,0.10
2023-04-28T15:44:14.467Z,0.30
2023-04-28T15:46:41.190Z,0.50
2023-04-28T15:49:08.604Z,0.30
2023-04-28T15:51:35.137Z,0.20
2023-04-28T15:54:01.670Z,0.90
2023-04-28T15:56:28.592Z,0.50
2023-04-28T15:58:55.165Z,0.20
2023-04-28T16:01:22.605Z,0.10
2023-04-28T16:03:49.357Z,0.30
2023-04-28T16:06:16.064Z,0.20
2023-04-28T16:08:42.768Z,0.30
2023-04-28T16:11:17.417Z,1.10
2023-04-28T16:13:44.970Z,0.20
2023-04-28T16:16:12.514Z,0.20
2023-04-28T16:18:39.216Z,0.40
2023-04-28T16:21:05.796Z,0.20
2023-04-28T16:23:32.234Z,0.40
2023-04-28T16:25:58.722Z,0.40
2023-04-28T16:28:25.289Z,0.60
2023-04-28T16:30:51.883Z,0.10
2023-04-28T16:33:18.615Z,0.30
2023-04-28T16:35:45.053Z,0.40
2023-04-28T16:38:12.322Z,0.10
2023-04-28T16:40:39.076Z,0.40
2023-04-28T16:43:05.570Z,0.30
2023-04-28T16:45:32.020Z,0.20
2023-04-28T16:47:58.473Z,0.30
2023-04-28T16:50:24.961Z,0.40
2023-04-28T16:52:51.430Z,0.60
2023-04-28T16:55:18.960Z,0.10
2023-04-28T16:57:46.192Z,0.30
2023-04-28T17:00:13.555Z,0.40
2023-04-28T17:02:40.278Z,0.50
2023-04-28T17:05:07.345Z,0.10
2023-04-28T17:07:33.910Z,0.10
2023-04-28T17:10:00.417Z,0.60
2023-04-28T17:12:27.064Z,0.20
2023-04-28T17:14:54.595Z,0.40
2023-04-28T17:17:21.285Z,0.20
2023-04-28T17:19:47.856Z,0.40
2023-04-28T17:22:14.666Z,0.30
2023-04-28T17:24:41.285Z,0.10
2023-04-28T17:27:09.429Z,0.20
2023-04-28T17:29:36.754Z,0.10
2023-04-28T17:32:03.244Z,0.30
2023-04-28T17:34:29.796Z,0.50
2023-04-28T17:36:56.300Z,0.50
2023-04-28T17:39:22.792Z,0.30
2023-04-28T17:41:49.254Z,0.40
2023-04-28T17:44:15.774Z,0.40
2023-04-28T17:46:42.408Z,0.40
2023-04-28T17:49:09.254Z,0.20
2023-04-28T17:51:36.035Z,0.40
2023-04-28T17:54:02.476Z,0.10
2023-04-28T17:56:29.590Z,0.30
2023-04-28T17:58:56.255Z,0.30
2023-04-28T18:01:22.887Z,0.10
2023-04-28T18:03:49.324Z,0.40
2023-04-28T18:06:16.268Z,0.60
2023-04-28T18:08:42.680Z,0.30
2023-04-28T18:11:10.061Z,0.30
2023-04-28T18:13:36.908Z,0.40
2023-04-28T18:16:05.142Z,0.50
2023-04-28T18:18:35.391Z,0.20
2023-04-28T18:21:02.438Z,0.20
2023-04-28T18:23:30.480Z,0.20
2023-04-28T18:25:57.246Z,0.30
2023-04-28T18:28:24.020Z,0.30
2023-04-28T18:30:50.531Z,0.30
2023-04-28T18:33:22.814Z,0.30
2023-04-28T18:35:58.667Z,0.10
2023-04-28T18:38:26.308Z,0.30
2023-04-28T18:40:52.823Z,0.20
2023-04-28T18:43:19.329Z,0.20
2023-04-28T18:45:45.814Z,0.40
2023-04-28T18:48:12.481Z,0.10
2023-04-28T18:50:39.316Z,0.50
2023-04-28T18:53:06.763Z,0.20
2023-04-28T18:55:33.666Z,0.30
2023-04-28T18:58:02.194Z,0.10
2023-04-28T19:00:29.095Z,0.40
2023-04-28T19:02:55.964Z,0.10
2023-04-28T19:05:22.758Z,0.10
2023-04-28T19:07:49.224Z,1.00
2023-04-28T19:10:15.745Z,0.20
2023-04-28T19:12:42.266Z,0.20
2023-04-28T19:15:09.315Z,0.10
2023-04-28T19:17:35.961Z,0.20
2023-04-28T19:20:04.033Z,0.40
2023-04-28T19:22:36.486Z,0.20
2023-04-28T19:25:04.493Z,0.30
2023-04-28T19:27:36.966Z,0.40
2023-04-28T19:30:06.247Z,0.10
2023-04-28T19:32:32.949Z,0.20
2023-04-28T19:34:59.524Z,0.20
2023-04-28T19:37:26.294Z,0.30
2023-04-28T19:39:53.089Z,0.20
2023-04-28T19:42:19.597Z,0.50
2023-04-28T19:44:47.419Z,0.90
2023-04-28T19:47:13.914Z,0.30
2023-04-28T19:49:43.462Z,0.20
2023-04-28T19:52:10.304Z,0.30
2023-04-28T19:54:38.849Z,0.30
2023-04-28T19:57:05.504Z,0.30
2023-04-28T19:59:32.117Z,0.20
2023-04-28T20:01:58.772Z,0.40
2023-04-28T20:04:25.992Z,0.20
2023-04-28T20:06:52.574Z,0.40
2023-04-28T20:09:19.082Z,0.30
2023-04-28T20:11:45.689Z,0.30
2023-04-28T20:14:12.287Z,0.30
2023-04-28T20:16:38.797Z,0.30
2023-04-28T20:19:05.320Z,0.60
2023-04-28T20:21:32.964Z,0.20
2023-04-28T20:23:59.344Z,0.50
2023-04-28T20:26:25.748Z,0.40
2023-04-28T20:28:54.149Z,0.30
2023-04-28T20:31:20.793Z,0.30
2023-04-28T20:33:47.275Z,0.60
2023-04-28T20:36:13.861Z,0.30
2023-04-28T20:38:40.383Z,0.40
2023-04-28T20:41:07.827Z,0.50
2023-04-28T20:43:34.456Z,0.40
2023-04-28T20:46:01.030Z,0.70
2023-04-28T20:48:29.093Z,0.90
2023-04-28T20:50:56.587Z,0.60
2023-04-28T20:53:23.119Z,0.40
2023-04-28T20:55:50.130Z,0.30
2023-04-28T20:58:17.006Z,0.40
2023-04-28T21:00:44.256Z,0.20
2023-04-28T21:03:15.823Z,0.30
2023-04-28T21:05:44.961Z,0.10
2023-04-28T21:08:12.491Z,0.20
2023-04-28T21:10:39.108Z,0.10
2023-04-28T21:13:07.086Z,0.20
2023-04-28T21:15:38.015Z,0.10
2023-04-28T21:18:04.739Z,0.40
2023-04-28T21:20:31.356Z,0.30
2023-04-28T21:22:57.994Z,0.20
2023-04-28T21:25:25.564Z,0.40
2023-04-28T21:27:53.091Z,0.20
2023-04-28T21:30:20.699Z,0.50
2023-04-28T21:32:47.319Z,0.30
2023-04-28T21:35:14.135Z,0.20
2023-04-28T21:37:40.840Z,0.40
2023-04-28T21:40:09.810Z,0.20
2023-04-28T21:42:36.380Z,0.10
2023-04-28T21:45:03.033Z,0.20
2023-04-28T21:47:30.195Z,0.10
2023-04-28T21:49:56.862Z,0.30
2023-04-28T21:52:23.356Z,0.30
2023-04-28T21:54:49.918Z,0.20
2023-04-28T21:57:16.424Z,0.30
2023-04-28T21:59:43.066Z,0.50
2023-04-28T22:02:09.652Z,0.30
2023-04-28T22:04:36.579Z,0.50
2023-04-28T22:07:03.845Z,0.10
2023-04-28T22:09:31.404Z,0.30
2023-04-28T22:11:57.847Z,0.30
2023-04-28T22:14:39.510Z,0.20
2023-04-28T22:17:06.666Z,0.20
2023-04-28T22:19:33.220Z,0.40
2023-04-28T22:21:59.662Z,0.50
2023-04-28T22:24:26.180Z,0.20
2023-04-28T22:26:52.557Z,0.20
2023-04-28T22:29:20.902Z,0.10
2023-04-28T22:31:47.843Z,0.10
2023-04-28T22:34:14.470Z,0.40
2023-04-28T22:36:41.735Z,0.10
2023-04-28T22:39:08.644Z,0.20
2023-04-28T22:41:35.079Z,0.30
2023-04-28T22:44:01.569Z,0.10
2023-04-28T22:46:28.932Z,0.30
2023-04-28T22:48:56.010Z,0.70
2023-04-28T22:51:22.641Z,0.40
2023-04-28T22:53:49.224Z,0.10
2023-04-28T22:56:15.775Z,0.20
2023-04-28T22:58:42.323Z,0.20
2023-04-28T23:01:09.585Z,0.20
2023-04-28T23:03:38.368Z,0.20
2023-04-28T23:06:05.183Z,0.40
2023-04-28T23:08:32.242Z,0.20
2023-04-28T23:10:58.651Z,0.50
2023-04-28T23:13:25.450Z,0.40
2023-04-28T23:15:52.353Z,0.10
2023-04-28T23:18:19.167Z,0.20
2023-04-28T23:20:49.957Z,0.30
2023-04-28T23:23:16.556Z,0.40
2023-04-28T23:25:43.297Z,0.10
2023-04-28T23:28:10.296Z,0.10
2023-04-28T23:30:36.711Z,0.20
2023-04-28T23:33:03.802Z,0.10
2023-04-28T23:35:32.431Z,0.20
2023-04-28T23:37:59.018Z,0.10
2023-04-28T23:40:26.934Z,0.10
2023-04-28T23:42:53.529Z,0.20
2023-04-28T23:45:20.225Z,0.10
2023-04-28T23:47:47.458Z,0.40
2023-04-28T23:50:14.192Z,0.60
2023-04-28T23:52:40.801Z,0.10
2023-04-28T23:55:12.924Z,0.20
2023-04-28T23:57:40.051Z,0.10
